If you wish to contribute or participate in the discussions about articles you are invited to join SKYbrary as a registered user

 Actions

Kikai Airport

From SKYbrary Wiki

RJKI
Airport
ICAO: RJKI – IATA: KKX
Summary
Name Kikai Airport
Region Asia and Pacific
Territory Japan JP.gif
Location Kikai, Kagoshima Prefecture
Serving Kikaijima
Elevation 4.572 m
15 ft4.572 m
Coordinates 28° 19' 10.95" N, 129° 55' 39.38" E
Runways
Designator Length Width Surface ROPS
7/25 1313 m4,307.743 ft
30 m98.425 ft
ASP /


METAR
Observation RJKI 210000Z AUTO 07008KT 9999 FEW011 BKN038 BKN045 20/18 Q1011
Station Kikai Island
Date/Time 21 April 2019 00:00:00
Wind direction 70°
Wind speed 08 kts
Lowest cloud amount few clouds
Temperature 20°C
Dew point 18°C
Humidity 88%
QNH 1011 hPa
Weather condition n/a

Kikai Airport, also known as Kikaijima Airport or Kikaiga Shima Airport, is located in Kikai, a town on Kikaijima (also known as Kikai Island, Kikaishima, Kikaigashima, etc.), one of the Amami Islands in the Kagoshima Prefecture of Japan.

Climatology

Humid Sub-tropical climate (Köppen climate classification Cfa)

Maps

Terrain

Loading map...

Airport Layout

Loading map...


Accidents & Serious Incidents at or in vicinity of RJKI

None on SKYbrary